logo
Search for airport 
image banner adimage banner adimage banner ad
image banner ad

WIHC - Cibubur / Wiladatika

Located in Cibubur, Indonesia

ICAO - , IATA -

Data provided by Airmate  

General information

Coordinates: S6°21'25" E106°53'49"
Elevation is 210 feet MSL.
 
View others Airports in Jakarta Raya

Operational data

Special qualification required
Current time UTC:
Current local time:
Weather at : WIHH - Jakarta/Halim Perdanakusuma ( 10 km )
METAR: WIHH 140100Z 26003KT 6000 FEW020 29/25 Q1011 NOSIG METAR
TAF: TAF WIHH 132300Z 1400/1500 04008KT 7000 SCT018 TEMPO 1406/1410 09014KT 3000 -TSRA FEW017CB BKN018 BECMG 1413/1415 22005KT 5000 HZ
View NOTAMs / SUP AIP / TFR affecting this airport [VIEW]
Communications frequencies: [VIEW]

Runways:

RWY identifierQFULength (ft)Width (ft)SurfaceLDA (ft)
0993°249366UNK
27273°249366UNK

Airport contact information

Address: Cibubur Indonesia

Satellite view of WIHC